Terminal Aerodrome Forecast
Issued by NWS Missoula, MT

Home | Current Version | Previous Version | Text Only | Print | Product List | Glossary On
Versions: 1 2 3 4 5 6 7 8 9 10 11 12 13 14 15 16 17 18 19 20 21 22 23
359
FTUS45 KMSO 072320
TAFGPI
TAF
KGPI 072320Z 0800/0824 02004KT P6SM BKN050
     FM080300 01005KT P6SM SCT040
     FM081000 01005KT 6SM -SN BKN040=

USA.gov is the U.S. government's official web portal to all federal, state and local government web resources and services.